Portada
METAR-TAF:

METAR-TAF

Aeroports :

Luang Prabang, Laos

latitud: 19-53N, longitud: 102-08E, altitud: 305 m

Observació

L'informe es va fer fa 9 hores i 7 minuts, a les 12:00 UTC
Vent 6 kt del Oest/Sud-Oest
Temperatura 32°C
Humitat 63%
Pressió 1004 hPa
Visibilitat 10 km o més
Núvols disperses a una alçada de 1700 ft
Escasses núvols a una alçada de 6000 ft

METAR: VLLB 291200Z 24006KT 9999 SCT017 FEW060 32/24 Q1004 NOSIG

Hora: 04:07 (21:07 UTC)

Pronòstic

L'informe es va fer fa 4 hores i 7 minuts, a les 17:00 UTC
Pronòstic vàlid del 29 a les 18 UTC al 30 a les 18 UTC
Vent 4 kt del Oest/Sud-Oest
Visibilitat: 5000 m
Núvols disperses a una alçada de 1700 ft
Cel ennuvolat a una alçada de 6000 ft
boirina

TAF: VLLB 291700Z 2918/3018 24004KT 5000 BR SCT017 BKN060

Observacions i pronòstics meteorològics de més de 4000 aeroports (METAR i TAF).

Les estacions disponibles són els punts grocs i vermells al mapa.

Posi el ratolí al punt desitjat per veure el nom de l'estació.

Feu clic per veure les observacions i els pronòstics meteorològics.

Per canviar el mapa: feu clic els botons verds amb una creu de color negre per apropar; al botó verd amb un guió per allunyar la imatge; o en les fletxes verdes per a mapes adjacents.


METAR-TAF: